createdAt,value
2023-09-25T00:00:13.305Z,75.90
2023-09-25T00:01:13.424Z,75.40
2023-09-25T00:02:13.259Z,75.30
2023-09-25T00:03:13.603Z,75.20
2023-09-25T00:04:13.726Z,74.70
2023-09-25T00:05:13.953Z,74.60
2023-09-25T00:06:13.222Z,74.10
2023-09-25T00:07:13.213Z,73.40
2023-09-25T00:08:13.201Z,73.30
2023-09-25T00:09:13.205Z,73.20
2023-09-25T00:10:13.236Z,73.00
2023-09-25T00:11:13.563Z,73.00
2023-09-25T00:12:13.507Z,72.80
2023-09-25T00:13:13.445Z,72.40
2023-09-25T00:14:13.339Z,72.20
2023-09-25T00:15:13.322Z,72.10
2023-09-25T00:16:13.381Z,72.30
2023-09-25T00:17:13.453Z,72.30
2023-09-25T00:18:13.400Z,72.10
2023-09-25T00:19:13.476Z,72.10
2023-09-25T00:20:13.572Z,72.30
2023-09-25T00:21:13.656Z,72.40
2023-09-25T00:22:13.835Z,72.60
2023-09-25T00:23:13.839Z,72.40
2023-09-25T00:24:13.179Z,73.00
2023-09-25T00:25:13.120Z,72.50
2023-09-25T00:26:13.091Z,72.50
2023-09-25T00:27:13.139Z,72.50
2023-09-25T00:28:13.233Z,72.10
2023-09-25T00:29:13.230Z,71.50
2023-09-25T00:30:13.291Z,71.30
2023-09-25T00:31:13.297Z,71.40
2023-09-25T00:32:13.597Z,71.30
2023-09-25T00:33:13.656Z,70.90
2023-09-25T00:34:12.862Z,71.30
2023-09-25T00:35:12.811Z,71.10
2023-09-25T00:36:13.851Z,71.60
2023-09-25T00:37:12.907Z,71.80
2023-09-25T00:38:13.027Z,71.60
2023-09-25T00:39:13.010Z,71.50
2023-09-25T00:40:13.085Z,71.60
2023-09-25T00:41:12.934Z,71.60
2023-09-25T00:42:14.334Z,71.80
2023-09-25T00:43:13.269Z,71.60
2023-09-25T00:44:13.479Z,71.50
2023-09-25T00:45:13.763Z,71.50
2023-09-25T00:46:13.926Z,71.40
2023-09-25T00:47:12.978Z,71.90
2023-09-25T00:48:13.158Z,71.60
2023-09-25T00:49:13.284Z,71.50
2023-09-25T00:50:13.302Z,71.60
2023-09-25T00:51:13.426Z,71.50
2023-09-25T00:52:13.203Z,71.70
2023-09-25T00:53:13.118Z,71.80
2023-09-25T00:54:13.204Z,71.80
2023-09-25T00:55:13.158Z,72.00
2023-09-25T00:56:13.416Z,71.80
2023-09-25T00:57:13.315Z,72.00
2023-09-25T00:58:13.116Z,71.80
2023-09-25T00:59:13.263Z,71.60
2023-09-25T01:00:13.339Z,71.30
2023-09-25T01:01:13.615Z,71.30
2023-09-25T01:02:13.686Z,71.10
2023-09-25T01:03:13.811Z,71.20
2023-09-25T01:04:12.931Z,71.30
2023-09-25T01:05:12.943Z,71.00
2023-09-25T01:06:13.125Z,70.70
2023-09-25T01:07:13.116Z,70.40
2023-09-25T01:08:13.255Z,70.20
2023-09-25T01:09:13.218Z,69.80
2023-09-25T01:10:13.288Z,69.80
2023-09-25T01:11:13.434Z,70.10
2023-09-25T01:12:13.366Z,69.60
2023-09-25T01:13:13.174Z,69.60
2023-09-25T01:14:12.887Z,69.20
2023-09-25T01:15:12.789Z,69.00
2023-09-25T01:16:12.985Z,68.80
2023-09-25T01:17:12.893Z,68.50
2023-09-25T01:18:13.905Z,68.20
2023-09-25T01:19:12.780Z,68.20
2023-09-25T01:20:13.558Z,68.30
2023-09-25T01:21:13.692Z,68.30
2023-09-25T01:22:13.761Z,68.20
2023-09-25T01:23:13.656Z,68.30
2023-09-25T01:24:13.586Z,68.30
2023-09-25T01:25:13.431Z,68.40
2023-09-25T01:26:13.396Z,68.10
2023-09-25T01:27:13.444Z,67.60
2023-09-25T01:28:13.321Z,67.40
2023-09-25T01:29:13.468Z,67.10
2023-09-25T01:30:13.514Z,67.10
2023-09-25T01:31:13.431Z,66.70
2023-09-25T01:32:13.393Z,66.80
2023-09-25T01:33:13.598Z,66.30
2023-09-25T01:34:13.970Z,66.20
2023-09-25T01:35:12.823Z,66.00
2023-09-25T01:36:13.546Z,65.90
2023-09-25T01:37:13.712Z,66.00
2023-09-25T01:38:13.678Z,66.40
2023-09-25T01:39:13.812Z,66.30
2023-09-25T01:40:13.666Z,66.00
2023-09-25T01:41:13.535Z,66.20
2023-09-25T01:42:13.416Z,65.90
2023-09-25T01:43:13.385Z,66.20
2023-09-25T01:44:13.332Z,65.80
2023-09-25T01:45:13.489Z,65.50
2023-09-25T01:46:13.626Z,65.50
2023-09-25T01:47:13.487Z,64.80
2023-09-25T01:48:13.475Z,64.90
2023-09-25T01:49:13.572Z,64.90
2023-09-25T01:50:13.933Z,65.10
2023-09-25T01:51:12.988Z,64.40
2023-09-25T01:52:12.949Z,64.70
2023-09-25T01:53:12.681Z,64.80
2023-09-25T01:54:13.769Z,64.40
2023-09-25T01:55:13.884Z,64.70
2023-09-25T01:56:12.670Z,64.50
2023-09-25T01:57:13.802Z,64.50
2023-09-25T01:58:13.613Z,64.90
2023-09-25T01:59:13.370Z,64.90
2023-09-25T02:00:13.673Z,65.00
2023-09-25T02:01:13.615Z,65.50
2023-09-25T02:02:13.853Z,65.60
2023-09-25T02:03:14.116Z,65.40
2023-09-25T02:04:13.153Z,65.80
2023-09-25T02:05:13.625Z,66.10
2023-09-25T02:06:14.238Z,66.00
2023-09-25T02:07:13.241Z,66.30
2023-09-25T02:08:13.136Z,66.30
2023-09-25T02:09:13.072Z,65.80
2023-09-25T02:10:13.082Z,66.10
2023-09-25T02:11:13.180Z,65.80
2023-09-25T02:12:13.057Z,65.60
2023-09-25T02:13:13.369Z,65.60
2023-09-25T02:14:13.283Z,65.80
2023-09-25T02:15:13.040Z,65.40
2023-09-25T02:16:13.060Z,65.20
2023-09-25T02:17:13.015Z,65.00
2023-09-25T02:18:12.974Z,64.80
2023-09-25T02:19:12.837Z,64.70
2023-09-25T02:20:13.662Z,65.00
2023-09-25T02:21:13.601Z,64.50
2023-09-25T02:22:13.676Z,63.80
2023-09-25T02:23:13.589Z,63.20
2023-09-25T02:24:13.690Z,64.30
2023-09-25T02:25:13.865Z,63.00
2023-09-25T02:26:12.804Z,63.00
2023-09-25T02:27:14.233Z,61.80
2023-09-25T02:28:13.403Z,62.60
2023-09-25T02:29:13.395Z,62.40
2023-09-25T02:30:13.243Z,62.40
2023-09-25T02:31:13.187Z,62.70
2023-09-25T02:32:13.326Z,62.60
2023-09-25T02:33:13.241Z,62.70
2023-09-25T02:34:13.225Z,62.80
2023-09-25T02:35:13.097Z,63.20
2023-09-25T02:36:13.007Z,63.10
2023-09-25T02:37:12.934Z,62.90
2023-09-25T02:38:13.269Z,63.60
2023-09-25T02:39:13.297Z,63.60
2023-09-25T02:40:13.553Z,63.50
2023-09-25T02:41:13.562Z,63.60
2023-09-25T02:42:13.701Z,63.60
2023-09-25T02:43:13.854Z,63.70
2023-09-25T02:44:13.792Z,64.00
2023-09-25T02:45:13.799Z,63.20
2023-09-25T02:46:13.689Z,64.10
2023-09-25T02:47:13.563Z,64.20
2023-09-25T02:48:13.603Z,64.70
2023-09-25T02:49:13.709Z,63.50
2023-09-25T02:50:13.881Z,63.50
2023-09-25T02:51:13.132Z,63.60
2023-09-25T02:52:13.026Z,63.40
2023-09-25T02:53:12.988Z,64.30
2023-09-25T02:54:12.953Z,63.80
2023-09-25T02:55:12.900Z,64.00
2023-09-25T02:56:13.122Z,64.60
2023-09-25T02:57:12.971Z,64.60
2023-09-25T02:58:12.792Z,64.10
2023-09-25T02:59:13.615Z,64.80
2023-09-25T03:00:13.735Z,64.20
2023-09-25T03:01:14.009Z,64.50
2023-09-25T03:02:13.025Z,64.90
2023-09-25T03:03:13.118Z,65.10
2023-09-25T03:04:13.261Z,65.30
2023-09-25T03:05:13.372Z,65.20
2023-09-25T03:06:13.242Z,64.50
2023-09-25T03:07:13.411Z,65.10
2023-09-25T03:08:13.302Z,64.90
2023-09-25T03:09:13.083Z,64.90
2023-09-25T03:10:13.068Z,65.00
2023-09-25T03:11:13.221Z,65.20
2023-09-25T03:12:13.331Z,64.70
2023-09-25T03:13:13.249Z,65.20
2023-09-25T03:14:13.075Z,65.60
2023-09-25T03:15:12.941Z,66.00
2023-09-25T03:16:12.985Z,66.10
2023-09-25T03:17:13.204Z,66.00
2023-09-25T03:18:13.629Z,66.50
2023-09-25T03:19:14.186Z,66.30
2023-09-25T03:20:13.154Z,66.20
2023-09-25T03:21:13.286Z,66.80
2023-09-25T03:22:13.228Z,67.30
2023-09-25T03:23:13.196Z,67.10
2023-09-25T03:24:13.373Z,67.70
2023-09-25T03:25:13.267Z,67.40
2023-09-25T03:26:13.265Z,67.00
2023-09-25T03:27:14.642Z,67.40
2023-09-25T03:28:13.544Z,67.80
2023-09-25T03:29:13.578Z,67.70
2023-09-25T03:30:13.523Z,68.00
2023-09-25T03:31:13.322Z,68.10
2023-09-25T03:32:14.589Z,68.10
2023-09-25T03:33:13.648Z,68.60
2023-09-25T03:34:13.572Z,69.10
2023-09-25T03:35:13.668Z,69.10
2023-09-25T03:36:13.973Z,69.20
2023-09-25T03:37:12.816Z,69.60
2023-09-25T03:38:13.687Z,69.70
2023-09-25T03:39:13.766Z,69.80
2023-09-25T03:40:13.870Z,70.10
2023-09-25T03:41:13.977Z,70.10
2023-09-25T03:42:13.054Z,71.30
2023-09-25T03:43:13.094Z,71.80
2023-09-25T03:44:13.061Z,72.10
2023-09-25T03:45:13.160Z,71.70
2023-09-25T03:46:13.327Z,71.60
2023-09-25T03:47:13.365Z,71.10
2023-09-25T03:48:13.497Z,71.00
2023-09-25T03:49:13.364Z,71.20
2023-09-25T03:50:13.392Z,70.50
2023-09-25T03:51:13.381Z,70.80
2023-09-25T03:52:13.538Z,69.90
2023-09-25T03:53:13.405Z,69.70
2023-09-25T03:54:13.449Z,69.80
2023-09-25T03:55:13.413Z,69.90
2023-09-25T03:56:13.675Z,69.90
2023-09-25T03:57:14.081Z,70.00
2023-09-25T03:58:13.190Z,70.00
2023-09-25T03:59:13.148Z,70.20
2023-09-25T04:00:12.942Z,70.40
2023-09-25T04:01:12.962Z,70.60
2023-09-25T04:02:12.975Z,71.20
2023-09-25T04:03:13.252Z,71.70
2023-09-25T04:04:13.357Z,71.90
2023-09-25T04:05:13.427Z,72.10
2023-09-25T04:06:13.377Z,72.80
2023-09-25T04:07:13.339Z,72.70
2023-09-25T04:08:13.639Z,72.50
2023-09-25T04:09:13.559Z,72.40
2023-09-25T04:10:13.486Z,72.80
2023-09-25T04:11:13.563Z,73.40
2023-09-25T04:12:13.707Z,73.60
2023-09-25T04:13:13.792Z,73.50
2023-09-25T04:14:13.839Z,73.90
2023-09-25T04:15:13.745Z,74.00
2023-09-25T04:16:13.681Z,74.40
2023-09-25T04:17:13.692Z,74.20
2023-09-25T04:18:13.950Z,74.00
2023-09-25T04:19:13.353Z,73.90
2023-09-25T04:20:13.416Z,73.70
2023-09-25T04:21:13.349Z,73.60
2023-09-25T04:22:13.796Z,73.40
2023-09-25T04:23:14.023Z,73.30
2023-09-25T04:24:13.208Z,73.30
2023-09-25T04:25:13.399Z,73.30
2023-09-25T04:26:13.546Z,73.30
2023-09-25T04:27:13.405Z,73.20
2023-09-25T04:28:13.588Z,72.80
2023-09-25T04:29:13.433Z,72.80
2023-09-25T04:30:13.514Z,72.80
2023-09-25T04:31:13.581Z,72.90
2023-09-25T04:32:13.456Z,72.80
2023-09-25T04:33:13.552Z,73.10
2023-09-25T04:34:13.511Z,73.20
2023-09-25T04:35:13.546Z,73.10
2023-09-25T04:36:13.830Z,73.20
2023-09-25T04:37:12.707Z,73.20
2023-09-25T04:38:13.841Z,73.30
2023-09-25T04:39:13.891Z,73.90
2023-09-25T04:40:12.873Z,73.70
2023-09-25T04:41:15.399Z,73.90
2023-09-25T04:42:13.243Z,76.40
2023-09-25T04:43:13.327Z,76.70
2023-09-25T04:44:13.246Z,76.70
2023-09-25T04:45:13.201Z,76.80
2023-09-25T04:46:13.582Z,77.00
2023-09-25T04:47:13.516Z,76.90
2023-09-25T04:48:13.828Z,77.00
2023-09-25T04:49:13.778Z,77.70
2023-09-25T04:50:13.805Z,77.80
2023-09-25T04:51:12.874Z,77.50
2023-09-25T04:52:13.033Z,78.40
2023-09-25T04:53:12.817Z,78.10
2023-09-25T04:54:13.813Z,78.00
2023-09-25T04:55:13.783Z,78.10
2023-09-25T04:56:13.602Z,78.30
2023-09-25T04:57:13.775Z,78.10
2023-09-25T04:58:14.047Z,77.90
2023-09-25T04:59:13.016Z,77.50
2023-09-25T05:00:13.085Z,77.40
2023-09-25T05:01:22.677Z,77.50
2023-09-25T05:02:14.191Z,77.50
2023-09-25T05:03:13.654Z,77.50
2023-09-25T05:04:13.598Z,77.50
2023-09-25T05:05:13.638Z,77.20
2023-09-25T05:06:13.811Z,77.00
2023-09-25T05:07:13.259Z,77.10
2023-09-25T05:08:13.214Z,76.50
2023-09-25T05:09:13.154Z,76.30
2023-09-25T05:10:13.116Z,76.40
2023-09-25T05:11:13.047Z,76.40
2023-09-25T05:12:12.878Z,76.20
2023-09-25T05:13:12.963Z,76.00
2023-09-25T05:14:13.126Z,76.00
2023-09-25T05:15:13.305Z,75.70
2023-09-25T05:16:13.616Z,76.00
2023-09-25T05:17:13.539Z,75.90
2023-09-25T05:18:13.574Z,75.80
2023-09-25T05:19:13.540Z,75.80
2023-09-25T05:20:13.575Z,75.70
2023-09-25T05:21:13.516Z,75.50
2023-09-25T05:22:13.528Z,75.80
2023-09-25T05:23:13.568Z,75.60
2023-09-25T05:24:13.536Z,75.30
2023-09-25T05:25:13.431Z,75.40
2023-09-25T05:26:13.364Z,75.00
2023-09-25T05:27:13.146Z,74.90
2023-09-25T05:28:13.252Z,74.60
2023-09-25T05:29:13.312Z,74.40
2023-09-25T05:30:13.593Z,74.10
2023-09-25T05:31:13.605Z,73.80
2023-09-25T05:32:13.501Z,73.80
2023-09-25T05:33:13.621Z,73.70
2023-09-25T05:34:13.717Z,73.80
2023-09-25T05:35:13.638Z,74.10
2023-09-25T05:36:13.913Z,74.00
2023-09-25T05:37:12.801Z,73.80
2023-09-25T05:38:13.548Z,74.30
2023-09-25T05:39:13.869Z,74.70
2023-09-25T05:40:14.023Z,75.80
2023-09-25T05:41:13.020Z,75.00
2023-09-25T05:42:13.141Z,75.10
2023-09-25T05:43:13.248Z,74.80
2023-09-25T05:44:13.180Z,74.50
2023-09-25T05:45:13.319Z,74.60
2023-09-25T05:46:13.654Z,74.00
2023-09-25T05:47:13.713Z,74.30
2023-09-25T05:48:13.827Z,74.10
2023-09-25T05:49:13.905Z,73.80
2023-09-25T05:50:12.788Z,73.40
2023-09-25T05:51:17.795Z,73.40
2023-09-25T05:52:13.802Z,73.40
2023-09-25T05:53:13.900Z,73.10
2023-09-25T05:54:12.730Z,73.70
2023-09-25T05:55:13.658Z,73.50
2023-09-25T05:56:16.173Z,73.50
2023-09-25T05:57:13.522Z,73.40
2023-09-25T05:58:13.772Z,73.40
2023-09-25T05:59:13.818Z,73.60
2023-09-25T06:00:14.044Z,73.40
2023-09-25T06:01:13.421Z,73.20
2023-09-25T06:02:13.580Z,72.90
2023-09-25T06:03:13.693Z,72.40
2023-09-25T06:04:14.006Z,72.30
2023-09-25T06:05:13.270Z,72.60
2023-09-25T06:06:13.108Z,72.70
2023-09-25T06:07:13.198Z,73.20
2023-09-25T06:08:13.122Z,74.10
2023-09-25T06:09:13.160Z,74.30
2023-09-25T06:10:13.316Z,74.60
2023-09-25T06:11:13.389Z,75.40
2023-09-25T06:12:23.399Z,75.60
2023-09-25T06:13:18.381Z,76.20
2023-09-25T06:14:13.417Z,76.40
2023-09-25T06:15:13.676Z,76.90
2023-09-25T06:16:13.910Z,76.60
2023-09-25T06:17:13.762Z,76.30
2023-09-25T06:18:13.712Z,76.00
2023-09-25T06:19:13.679Z,75.70
2023-09-25T06:20:13.488Z,73.00
2023-09-25T06:21:13.437Z,72.40
2023-09-25T06:22:13.314Z,72.20
2023-09-25T06:23:13.510Z,71.20
2023-09-25T06:24:13.422Z,70.50
2023-09-25T06:25:13.462Z,70.10
2023-09-25T06:26:13.322Z,69.50
2023-09-25T06:27:13.104Z,68.90
2023-09-25T06:28:12.951Z,67.90
2023-09-25T06:29:12.846Z,67.60
2023-09-25T06:30:13.847Z,67.40
2023-09-25T06:31:13.035Z,67.50
2023-09-25T06:32:13.127Z,66.90
2023-09-25T06:33:13.210Z,67.00
2023-09-25T06:34:13.291Z,67.00
2023-09-25T06:35:13.427Z,65.90
2023-09-25T06:36:13.648Z,65.40
2023-09-25T06:37:13.648Z,66.20
2023-09-25T06:38:13.748Z,66.60
2023-09-25T06:39:13.620Z,64.70
2023-09-25T06:40:13.616Z,65.50
2023-09-25T06:41:13.914Z,65.20
2023-09-25T06:42:12.895Z,65.40
2023-09-25T06:43:12.894Z,64.70
2023-09-25T06:44:14.122Z,64.20
2023-09-25T06:45:13.168Z,64.40
2023-09-25T06:46:13.359Z,64.20
2023-09-25T06:47:13.566Z,64.10
2023-09-25T06:48:13.645Z,63.90
2023-09-25T06:49:13.722Z,63.50
2023-09-25T06:50:13.522Z,63.20
2023-09-25T06:51:14.041Z,62.90
2023-09-25T06:52:13.083Z,63.40
2023-09-25T06:53:13.067Z,62.00
2023-09-25T06:54:13.029Z,63.80
2023-09-25T06:55:13.073Z,62.50
2023-09-25T06:56:13.113Z,63.10
2023-09-25T06:57:12.951Z,62.50
2023-09-25T06:58:12.947Z,62.50
2023-09-25T06:59:13.179Z,62.40
2023-09-25T07:00:13.522Z,62.90
2023-09-25T07:01:13.512Z,61.80
2023-09-25T07:02:13.560Z,61.30
2023-09-25T07:03:14.229Z,61.30
2023-09-25T07:04:13.600Z,61.00
2023-09-25T07:05:13.795Z,59.90
2023-09-25T07:06:13.071Z,60.60
2023-09-25T07:07:13.171Z,60.40
2023-09-25T07:08:13.034Z,59.50
2023-09-25T07:09:13.224Z,59.70
2023-09-25T07:10:25.020Z,60.30
2023-09-25T07:11:13.075Z,58.40
2023-09-25T07:12:13.102Z,59.40
2023-09-25T07:13:13.032Z,59.20
2023-09-25T07:14:12.997Z,60.20
2023-09-25T07:15:13.314Z,59.60
2023-09-25T07:16:13.487Z,60.70
2023-09-25T07:17:13.416Z,59.10
2023-09-25T07:18:13.417Z,59.20
2023-09-25T07:19:14.058Z,59.30
2023-09-25T07:20:13.220Z,59.50
2023-09-25T07:21:13.439Z,59.90
2023-09-25T07:22:13.589Z,59.10
2023-09-25T07:23:13.692Z,57.60
2023-09-25T07:24:13.676Z,59.50
2023-09-25T07:25:13.913Z,59.40
2023-09-25T07:26:13.096Z,60.70
2023-09-25T07:27:13.364Z,61.50
2023-09-25T07:28:13.478Z,61.80
2023-09-25T07:29:26.402Z,62.10
2023-09-25T07:30:13.216Z,62.50
2023-09-25T07:31:13.280Z,63.10
2023-09-25T07:32:13.439Z,59.70
2023-09-25T07:33:13.513Z,58.80
2023-09-25T07:34:13.472Z,58.50
2023-09-25T07:35:13.470Z,59.10
2023-09-25T07:36:13.877Z,57.60
2023-09-25T07:37:12.786Z,57.90
2023-09-25T07:38:13.790Z,58.40
2023-09-25T07:39:13.729Z,57.90
2023-09-25T07:40:13.616Z,58.60
2023-09-25T07:41:13.546Z,57.70
2023-09-25T07:42:13.572Z,59.20
2023-09-25T07:43:13.845Z,58.60
2023-09-25T07:44:12.995Z,58.70
2023-09-25T07:45:12.976Z,57.40
2023-09-25T07:46:13.076Z,58.80
2023-09-25T07:47:13.622Z,55.80
2023-09-25T07:48:13.007Z,57.00
2023-09-25T07:49:13.058Z,56.70
2023-09-25T07:50:12.955Z,56.60
2023-09-25T07:51:13.011Z,57.20
2023-09-25T07:52:13.325Z,55.80
2023-09-25T07:53:13.591Z,56.00
2023-09-25T07:54:13.784Z,56.70
2023-09-25T07:55:13.879Z,55.40
2023-09-25T07:56:13.835Z,55.10
2023-09-25T07:57:13.455Z,54.50
2023-09-25T07:58:13.467Z,53.70
2023-09-25T07:59:13.580Z,54.00
2023-09-25T08:00:13.641Z,54.10
2023-09-25T08:01:13.686Z,54.20
2023-09-25T08:02:13.786Z,54.40
2023-09-25T08:03:13.919Z,54.80
2023-09-25T08:04:13.217Z,53.70
2023-09-25T08:05:13.288Z,54.50
2023-09-25T08:06:13.214Z,54.90
2023-09-25T08:07:13.367Z,55.40
2023-09-25T08:08:13.344Z,55.50
2023-09-25T08:09:13.324Z,53.10
2023-09-25T08:10:13.230Z,53.70
2023-09-25T08:11:13.609Z,54.50
2023-09-25T08:12:14.195Z,54.10
2023-09-25T08:13:15.852Z,53.80
2023-09-25T08:14:13.424Z,54.10
2023-09-25T08:15:13.266Z,55.10
2023-09-25T08:16:13.695Z,54.50
2023-09-25T08:17:13.894Z,54.00
2023-09-25T08:18:13.049Z,52.30
2023-09-25T08:19:13.428Z,53.30
2023-09-25T08:20:13.795Z,53.40
2023-09-25T08:21:13.880Z,50.90
2023-09-25T08:22:13.065Z,51.80
2023-09-25T08:23:12.897Z,51.10
2023-09-25T08:24:12.723Z,50.40
2023-09-25T08:25:13.974Z,52.20
2023-09-25T08:26:12.609Z,49.70
2023-09-25T08:27:13.808Z,50.30
2023-09-25T08:28:13.768Z,50.90
2023-09-25T08:29:13.855Z,49.60
2023-09-25T08:30:13.837Z,50.00
2023-09-25T08:31:13.917Z,50.70
2023-09-25T08:32:12.751Z,50.20
2023-09-25T08:33:13.893Z,50.30
2023-09-25T08:34:13.327Z,49.10
2023-09-25T08:35:13.437Z,50.90
2023-09-25T08:36:13.526Z,50.40
2023-09-25T08:37:14.220Z,51.10
2023-09-25T08:38:13.232Z,49.90
2023-09-25T08:39:13.273Z,50.10
2023-09-25T08:40:13.933Z,50.50
2023-09-25T08:41:13.616Z,50.20
2023-09-25T08:42:13.692Z,51.70
2023-09-25T08:43:20.108Z,50.50
2023-09-25T08:44:13.153Z,51.10
2023-09-25T08:45:13.359Z,51.70
2023-09-25T08:46:13.695Z,49.80
2023-09-25T08:47:13.795Z,48.00
2023-09-25T08:48:14.093Z,49.00
2023-09-25T08:49:13.141Z,49.90
2023-09-25T08:50:13.708Z,49.50
2023-09-25T08:51:13.799Z,48.50
2023-09-25T08:52:14.109Z,48.10
2023-09-25T08:53:13.250Z,48.30
2023-09-25T08:54:13.356Z,49.20
2023-09-25T08:55:13.619Z,48.10
2023-09-25T08:56:13.778Z,48.70
2023-09-25T08:57:13.811Z,50.00
2023-09-25T08:58:13.795Z,49.00
2023-09-25T08:59:13.889Z,48.60
2023-09-25T09:00:13.031Z,49.10
2023-09-25T09:01:12.896Z,48.00
2023-09-25T09:02:12.876Z,46.90
2023-09-25T09:03:13.946Z,45.90
2023-09-25T09:04:13.459Z,47.90
2023-09-25T09:05:13.671Z,48.20
2023-09-25T09:06:14.006Z,46.30
2023-09-25T09:07:13.220Z,45.00
2023-09-25T09:08:13.315Z,45.20
2023-09-25T09:09:13.135Z,45.60
2023-09-25T09:10:13.043Z,44.60
2023-09-25T09:11:13.184Z,44.70
2023-09-25T09:12:13.274Z,44.70
2023-09-25T09:13:13.489Z,45.30
2023-09-25T09:14:13.426Z,45.90
2023-09-25T09:15:13.233Z,45.60
2023-09-25T09:16:13.324Z,44.10
2023-09-25T09:17:13.472Z,44.30
2023-09-25T09:18:13.841Z,44.60
2023-09-25T09:19:12.813Z,45.10
2023-09-25T09:20:13.948Z,43.80
2023-09-25T09:21:12.959Z,44.50
2023-09-25T09:22:12.840Z,45.10
2023-09-25T09:23:13.950Z,45.60
2023-09-25T09:24:13.431Z,44.80
2023-09-25T09:25:13.270Z,45.40
2023-09-25T09:26:13.256Z,45.00
2023-09-25T09:27:13.352Z,43.60
2023-09-25T09:28:13.665Z,45.00
2023-09-25T09:29:13.641Z,43.80
2023-09-25T09:30:13.629Z,45.10
2023-09-25T09:31:13.622Z,44.10
2023-09-25T09:32:13.629Z,44.70
2023-09-25T09:33:13.850Z,44.70
2023-09-25T09:34:14.121Z,43.40
2023-09-25T09:35:18.025Z,44.10
2023-09-25T09:36:12.918Z,43.20
2023-09-25T09:37:12.972Z,41.80
2023-09-25T09:38:12.931Z,42.70
2023-09-25T09:39:13.069Z,41.70
2023-09-25T09:40:13.232Z,42.50
2023-09-25T09:41:13.242Z,42.90
2023-09-25T09:42:13.420Z,41.50
2023-09-25T09:43:13.287Z,42.00
2023-09-25T09:44:13.291Z,39.90
2023-09-25T09:45:13.474Z,39.40
2023-09-25T09:46:13.623Z,40.90
2023-09-25T09:47:13.763Z,40.80
2023-09-25T09:48:13.701Z,39.70
2023-09-25T09:49:13.545Z,40.70
2023-09-25T09:50:13.775Z,40.50
2023-09-25T09:51:14.155Z,41.10
2023-09-25T09:52:13.480Z,41.20
2023-09-25T09:53:13.735Z,39.60
2023-09-25T09:54:13.659Z,40.10
2023-09-25T09:55:13.653Z,40.70
2023-09-25T09:56:13.550Z,40.30
2023-09-25T09:57:13.668Z,39.70
2023-09-25T09:58:13.538Z,38.20
2023-09-25T09:59:13.518Z,39.30
2023-09-25T10:00:13.595Z,40.80
2023-09-25T10:01:14.083Z,39.00
2023-09-25T10:02:13.526Z,37.80
2023-09-25T10:03:13.892Z,35.90
2023-09-25T10:04:13.607Z,34.50
2023-09-25T10:05:13.851Z,33.80
2023-09-25T10:06:12.752Z,34.30
2023-09-25T10:07:13.877Z,34.40
2023-09-25T10:08:12.759Z,35.70
2023-09-25T10:09:13.670Z,35.60
2023-09-25T10:10:13.598Z,36.20
2023-09-25T10:11:13.499Z,34.80
2023-09-25T10:12:13.378Z,35.30
2023-09-25T10:13:13.380Z,34.60
2023-09-25T10:14:13.217Z,34.70
2023-09-25T10:15:13.174Z,36.00
2023-09-25T10:16:13.055Z,33.90
2023-09-25T10:17:13.311Z,33.70
2023-09-25T10:18:13.441Z,34.10
2023-09-25T10:19:13.561Z,33.20
2023-09-25T10:20:13.476Z,33.20
2023-09-25T10:21:13.461Z,33.20
2023-09-25T10:22:13.652Z,33.70
2023-09-25T10:23:13.617Z,33.40
2023-09-25T10:24:13.577Z,32.60
2023-09-25T10:25:13.785Z,32.70
2023-09-25T10:26:13.749Z,31.30
2023-09-25T10:27:14.144Z,32.00
2023-09-25T10:28:13.352Z,29.90
2023-09-25T10:29:13.399Z,31.10
2023-09-25T10:30:13.305Z,31.40
2023-09-25T10:31:13.203Z,32.10
2023-09-25T10:32:13.286Z,31.30
2023-09-25T10:33:13.715Z,32.50
2023-09-25T10:34:14.008Z,30.50
2023-09-25T10:35:12.972Z,31.30
2023-09-25T10:36:13.315Z,31.40
2023-09-25T10:37:14.050Z,30.70
2023-09-25T10:38:29.343Z,31.50
2023-09-25T10:39:13.341Z,31.50
2023-09-25T10:40:13.294Z,32.10
2023-09-25T10:41:13.490Z,31.50
2023-09-25T10:42:13.453Z,31.80
2023-09-25T10:43:13.323Z,30.30
2023-09-25T10:44:14.298Z,30.20
2023-09-25T10:45:13.358Z,30.50
2023-09-25T10:46:13.510Z,31.90
2023-09-25T10:47:13.435Z,31.80
2023-09-25T10:48:13.314Z,29.80
2023-09-25T10:49:13.264Z,29.90
2023-09-25T10:50:13.041Z,30.70
2023-09-25T10:51:13.009Z,29.50
2023-09-25T10:52:13.066Z,30.60
2023-09-25T10:53:13.045Z,29.50
2023-09-25T10:54:12.939Z,29.50
2023-09-25T10:55:12.946Z,29.40
2023-09-25T10:56:12.749Z,30.50
2023-09-25T10:57:14.043Z,30.60
2023-09-25T10:58:13.073Z,30.90
2023-09-25T10:59:12.984Z,30.40
2023-09-25T11:00:12.922Z,31.40
2023-09-25T11:01:12.787Z,30.90
2023-09-25T11:02:12.792Z,31.50
2023-09-25T11:03:14.228Z,30.00
2023-09-25T11:04:13.674Z,31.40
2023-09-25T11:05:14.172Z,29.20
2023-09-25T11:06:13.420Z,31.90
2023-09-25T11:07:13.615Z,30.00
2023-09-25T11:08:13.620Z,32.40
2023-09-25T11:09:13.619Z,29.50
2023-09-25T11:10:13.562Z,29.80
2023-09-25T11:11:13.606Z,30.90
2023-09-25T11:12:13.670Z,28.70
2023-09-25T11:13:13.483Z,28.90
2023-09-25T11:14:13.356Z,29.80
2023-09-25T11:15:13.519Z,29.60
2023-09-25T11:16:13.603Z,30.20
2023-09-25T11:17:13.537Z,31.00
2023-09-25T11:18:13.495Z,30.10
2023-09-25T11:19:13.762Z,31.20
2023-09-25T11:20:13.943Z,31.00
2023-09-25T11:21:13.119Z,30.20
2023-09-25T11:22:12.963Z,31.50
2023-09-25T11:23:20.994Z,31.60
2023-09-25T11:24:12.886Z,31.50
2023-09-25T11:25:13.117Z,30.90
2023-09-25T11:26:13.124Z,29.80
2023-09-25T11:27:13.117Z,30.80
2023-09-25T11:28:13.060Z,30.00
2023-09-25T11:29:13.050Z,31.00
2023-09-25T11:30:13.017Z,32.40
2023-09-25T11:31:13.282Z,31.80
2023-09-25T11:32:13.257Z,30.80
2023-09-25T11:33:13.202Z,30.70
2023-09-25T11:34:13.197Z,30.50
2023-09-25T11:35:13.135Z,29.60
2023-09-25T11:36:13.558Z,30.70
2023-09-25T11:37:13.689Z,29.10
2023-09-25T11:38:13.516Z,30.70
2023-09-25T11:39:13.704Z,30.70
2023-09-25T11:40:13.793Z,31.10
2023-09-25T11:41:13.809Z,31.90
2023-09-25T11:42:13.892Z,28.60
2023-09-25T11:43:12.912Z,30.00
2023-09-25T11:44:12.870Z,29.50
2023-09-25T11:45:13.907Z,29.00
2023-09-25T11:46:13.018Z,27.50
2023-09-25T11:47:13.263Z,27.60
2023-09-25T11:48:13.340Z,29.40
2023-09-25T11:49:13.439Z,29.40
2023-09-25T11:50:13.702Z,30.20
2023-09-25T11:51:13.752Z,28.90
2023-09-25T11:52:13.663Z,29.00
2023-09-25T11:53:13.781Z,28.90
2023-09-25T11:54:13.694Z,29.60
2023-09-25T11:55:13.623Z,28.50
2023-09-25T11:56:13.691Z,28.60
2023-09-25T11:57:13.423Z,27.50
2023-09-25T11:58:13.339Z,28.30
2023-09-25T11:59:13.264Z,29.60
2023-09-25T12:00:13.230Z,28.70
2023-09-25T12:01:13.207Z,28.10
2023-09-25T12:02:13.480Z,27.70
2023-09-25T12:03:13.540Z,28.90
2023-09-25T12:04:13.823Z,29.60
2023-09-25T12:05:13.118Z,29.10
2023-09-25T12:06:13.306Z,28.90
2023-09-25T12:07:13.412Z,29.20
2023-09-25T12:08:13.252Z,30.40
2023-09-25T12:09:13.125Z,29.70
2023-09-25T12:10:13.381Z,28.40
2023-09-25T12:11:13.801Z,28.40
2023-09-25T12:12:13.761Z,29.20
2023-09-25T12:13:14.135Z,29.90
2023-09-25T12:14:13.030Z,28.70
2023-09-25T12:15:13.194Z,29.50
2023-09-25T12:16:13.336Z,30.30
2023-09-25T12:17:13.559Z,28.40
2023-09-25T12:18:14.334Z,26.80
2023-09-25T12:19:14.484Z,28.00
2023-09-25T12:20:13.514Z,27.70
2023-09-25T12:21:13.567Z,28.10
2023-09-25T12:22:13.579Z,28.30
2023-09-25T12:23:13.847Z,28.60
2023-09-25T12:24:13.899Z,28.80
2023-09-25T12:25:12.936Z,27.80
2023-09-25T12:26:12.783Z,28.50
2023-09-25T12:27:13.945Z,27.10
2023-09-25T12:28:13.375Z,28.50
2023-09-25T12:29:13.281Z,28.50
2023-09-25T12:30:13.091Z,28.10
2023-09-25T12:31:13.107Z,27.80
2023-09-25T12:32:13.392Z,28.70
2023-09-25T12:33:13.715Z,27.00
2023-09-25T12:34:13.756Z,28.10
2023-09-25T12:35:13.619Z,28.90
2023-09-25T12:36:13.552Z,29.10
2023-09-25T12:37:13.610Z,29.70
2023-09-25T12:38:14.828Z,29.90
2023-09-25T12:39:14.026Z,30.00
2023-09-25T12:40:13.131Z,30.60
2023-09-25T12:41:13.532Z,29.60
2023-09-25T12:42:21.641Z,30.10
2023-09-25T12:43:13.193Z,30.40
2023-09-25T12:44:13.518Z,29.80
2023-09-25T12:45:13.446Z,30.50
2023-09-25T12:46:13.492Z,30.50
2023-09-25T12:47:13.626Z,30.90
2023-09-25T12:48:13.764Z,31.00
2023-09-25T12:49:14.138Z,30.90
2023-09-25T12:50:13.189Z,30.90
2023-09-25T12:51:13.258Z,30.80
2023-09-25T12:52:13.788Z,30.90